Terminal Aerodrome Forecast
Issued by NWS Charleston, WV

Current Version | Previous Version | Graphics & Text | Print | Product List | Glossary On
Versions: 1 2 3 4 5 6 7 8 9 10 11 12 13 14 15 16 17 18 19 20 21 22 23 24 25 26 27 28 29 30 31 32
633
FTUS41 KRLX 290128 AAA
TAFBKW
TAF AMD
KBKW 290128Z 2901/2924 32005KT 6SM SHRA BKN005 OVC060
     FM290300 VRB03KT 3SM BR BKN005
     FM290600 00000KT 3SM BR OVC004
     FM291400 30004KT P6SM SCT010
     FM291500 30005KT P6SM BKN020
     FM291600 30007KT P6SM VCTS BKN045CB=

USA.gov is the U.S. government's official web portal to all federal, state and local government web resources and services.